< < Back
Terminal Aerodrome Forecast


Current Version              Previous Versions:   1  2  3  4  5  6  7  8  9  

Terminal Aerodrome Forecast

182
FTUS42 KJAX 241700
TAFGNV
TAF
KGNV 241733Z 2418/2518 03005KT P6SM FEW250=



Latest METAR

729
SAUS70 KWBC 250700 RRH
MTRGNV
METAR KGNV 250653Z AUTO 00000KT 10SM CLR 10/09 A2999 RMK AO2 SLP155
T01000094


USA.gov is the U.S. government's official web portal to all federal, state and local government web resources and services.